<?xml version="1.0" encoding="UTF-8" standalone="no" ?>
<gpx xmlns="http://www.topografix.com/GPX/1/1" xmlns:xsi="http://www.w3.org/2001/XMLSchema-instance" xsi:schemaLocation="http://www.topografix.com/GPX/1/1 http://www.topografix.com/GPX/1/1/gpx.xsd" version="1.1" creator="VisuGPX - https://www.visugpx.com">
  <metadata>
    <name>15130423-2022 07 05 Volvic 14km 380m</name>
  </metadata>
  <trk>
    <name><![CDATA[15130423-2022 07 05 Volvic 14km 380m]]></name>
    <trkseg>
      <trkpt lat="45.87123" lon="3.02787">
        <ele>578</ele>
        <time>2022-07-13T08:21:45Z</time>
      </trkpt>
      <trkpt lat="45.87166" lon="3.02412">
        <ele>612</ele>
        <time>2022-07-13T08:27:38Z</time>
      </trkpt>
      <trkpt lat="45.87246" lon="3.02297">
        <ele>617</ele>
        <time>2022-07-13T08:30:09Z</time>
      </trkpt>
      <trkpt lat="45.87221" lon="3.02024">
        <ele>623</ele>
        <time>2022-07-13T08:34:25Z</time>
      </trkpt>
      <trkpt lat="45.87128" lon="3.01925">
        <ele>633</ele>
        <time>2022-07-13T08:36:59Z</time>
      </trkpt>
      <trkpt lat="45.87118" lon="3.01797">
        <ele>641</ele>
        <time>2022-07-13T08:38:59Z</time>
      </trkpt>
      <trkpt lat="45.87136" lon="3.01721">
        <ele>647</ele>
        <time>2022-07-13T08:40:14Z</time>
      </trkpt>
      <trkpt lat="45.87224" lon="3.01574">
        <ele>658</ele>
        <time>2022-07-13T08:43:14Z</time>
      </trkpt>
      <trkpt lat="45.87226" lon="3.01397">
        <ele>662</ele>
        <time>2022-07-13T08:45:58Z</time>
      </trkpt>
      <trkpt lat="45.8719" lon="3.0124">
        <ele>666</ele>
        <time>2022-07-13T08:48:32Z</time>
      </trkpt>
      <trkpt lat="45.87195" lon="3.01173">
        <ele>669</ele>
        <time>2022-07-13T08:49:35Z</time>
      </trkpt>
      <trkpt lat="45.87161" lon="3.01099">
        <ele>673</ele>
        <time>2022-07-13T08:50:57Z</time>
      </trkpt>
      <trkpt lat="45.87152" lon="3.00948">
        <ele>681</ele>
        <time>2022-07-13T08:53:18Z</time>
      </trkpt>
      <trkpt lat="45.87119" lon="3.00789">
        <ele>689</ele>
        <time>2022-07-13T08:55:52Z</time>
      </trkpt>
      <trkpt lat="45.87052" lon="3.00776">
        <ele>693</ele>
        <time>2022-07-13T08:57:22Z</time>
      </trkpt>
      <trkpt lat="45.87039" lon="3.0063">
        <ele>705</ele>
        <time>2022-07-13T08:59:39Z</time>
      </trkpt>
      <trkpt lat="45.87083" lon="3.00548">
        <ele>711</ele>
        <time>2022-07-13T09:01:15Z</time>
      </trkpt>
      <trkpt lat="45.87084" lon="3.00283">
        <ele>719</ele>
        <time>2022-07-13T09:05:21Z</time>
      </trkpt>
      <trkpt lat="45.87088" lon="3.00157">
        <ele>724</ele>
        <time>2022-07-13T09:07:18Z</time>
      </trkpt>
      <trkpt lat="45.87086" lon="3.00074">
        <ele>727</ele>
        <time>2022-07-13T09:08:36Z</time>
      </trkpt>
      <trkpt lat="45.87081" lon="2.99957">
        <ele>736</ele>
        <time>2022-07-13T09:10:25Z</time>
      </trkpt>
      <trkpt lat="45.87087" lon="2.99838">
        <ele>744</ele>
        <time>2022-07-13T09:12:15Z</time>
      </trkpt>
      <trkpt lat="45.87097" lon="2.99543">
        <ele>761</ele>
        <time>2022-07-13T09:16:50Z</time>
      </trkpt>
      <trkpt lat="45.87266" lon="2.99476">
        <ele>770</ele>
        <time>2022-07-13T09:20:44Z</time>
      </trkpt>
      <trkpt lat="45.87294" lon="2.99402">
        <ele>774</ele>
        <time>2022-07-13T09:22:02Z</time>
      </trkpt>
      <trkpt lat="45.87325" lon="2.99266">
        <ele>776</ele>
        <time>2022-07-13T09:24:15Z</time>
      </trkpt>
      <trkpt lat="45.87409" lon="2.99023">
        <ele>779</ele>
        <time>2022-07-13T09:28:27Z</time>
      </trkpt>
      <trkpt lat="45.87478" lon="2.98941">
        <ele>773</ele>
        <time>2022-07-13T09:30:27Z</time>
      </trkpt>
      <trkpt lat="45.87536" lon="2.98944">
        <ele>769</ele>
        <time>2022-07-13T09:31:44Z</time>
      </trkpt>
      <trkpt lat="45.87651" lon="2.99105">
        <ele>763</ele>
        <time>2022-07-13T09:35:18Z</time>
      </trkpt>
      <trkpt lat="45.87705" lon="2.98984">
        <ele>761</ele>
        <time>2022-07-13T09:37:32Z</time>
      </trkpt>
      <trkpt lat="45.87574" lon="2.98798">
        <ele>765</ele>
        <time>2022-07-13T09:41:38Z</time>
      </trkpt>
      <trkpt lat="45.8751" lon="2.98718">
        <ele>770</ele>
        <time>2022-07-13T09:43:31Z</time>
      </trkpt>
      <trkpt lat="45.876" lon="2.98498">
        <ele>775</ele>
        <time>2022-07-13T09:47:28Z</time>
      </trkpt>
      <trkpt lat="45.87664" lon="2.98092">
        <ele>795</ele>
        <time>2022-07-13T09:53:55Z</time>
      </trkpt>
      <trkpt lat="45.87578" lon="2.98093">
        <ele>803</ele>
        <time>2022-07-13T09:55:50Z</time>
      </trkpt>
      <trkpt lat="45.87567" lon="2.98034">
        <ele>803</ele>
        <time>2022-07-13T09:56:46Z</time>
      </trkpt>
      <trkpt lat="45.87561" lon="2.97922">
        <ele>806</ele>
        <time>2022-07-13T09:58:31Z</time>
      </trkpt>
      <trkpt lat="45.87601" lon="2.97673">
        <ele>804</ele>
        <time>2022-07-13T10:02:28Z</time>
      </trkpt>
      <trkpt lat="45.87584" lon="2.97394">
        <ele>804</ele>
        <time>2022-07-13T10:06:48Z</time>
      </trkpt>
      <trkpt lat="45.87217" lon="2.9728">
        <ele>823</ele>
        <time>2022-07-13T10:15:09Z</time>
      </trkpt>
      <trkpt lat="45.87107" lon="2.97044">
        <ele>834</ele>
        <time>2022-07-13T10:19:33Z</time>
      </trkpt>
      <trkpt lat="45.87089" lon="2.96906">
        <ele>837</ele>
        <time>2022-07-13T10:21:44Z</time>
      </trkpt>
      <trkpt lat="45.86797" lon="2.9703">
        <ele>844</ele>
        <time>2022-07-13T10:28:30Z</time>
      </trkpt>
      <trkpt lat="45.8665" lon="2.97019">
        <ele>845</ele>
        <time>2022-07-13T10:31:46Z</time>
      </trkpt>
      <trkpt lat="45.86569" lon="2.96948">
        <ele>849</ele>
        <time>2022-07-13T10:33:53Z</time>
      </trkpt>
      <trkpt lat="45.86492" lon="2.96967">
        <ele>851</ele>
        <time>2022-07-13T10:35:37Z</time>
      </trkpt>
      <trkpt lat="45.86415" lon="2.97073">
        <ele>849</ele>
        <time>2022-07-13T10:38:00Z</time>
      </trkpt>
      <trkpt lat="45.86736" lon="2.97234">
        <ele>841</ele>
        <time>2022-07-13T10:45:33Z</time>
      </trkpt>
      <trkpt lat="45.86864" lon="2.97355">
        <ele>837</ele>
        <time>2022-07-13T10:48:58Z</time>
      </trkpt>
      <trkpt lat="45.86957" lon="2.97507">
        <ele>834</ele>
        <time>2022-07-13T10:52:06Z</time>
      </trkpt>
      <trkpt lat="45.87036" lon="2.97533">
        <ele>828</ele>
        <time>2022-07-13T10:53:54Z</time>
      </trkpt>
      <trkpt lat="45.87089" lon="2.97625">
        <ele>824</ele>
        <time>2022-07-13T10:55:45Z</time>
      </trkpt>
      <trkpt lat="45.871" lon="2.9774">
        <ele>824</ele>
        <time>2022-07-13T10:57:33Z</time>
      </trkpt>
      <trkpt lat="45.87112" lon="2.97946">
        <ele>817</ele>
        <time>2022-07-13T11:00:45Z</time>
      </trkpt>
      <trkpt lat="45.87136" lon="2.98088">
        <ele>812</ele>
        <time>2022-07-13T11:03:01Z</time>
      </trkpt>
      <trkpt lat="45.87111" lon="2.9814">
        <ele>814</ele>
        <time>2022-07-13T11:03:59Z</time>
      </trkpt>
      <trkpt lat="45.86934" lon="2.98231">
        <ele>815</ele>
        <time>2022-07-13T11:08:10Z</time>
      </trkpt>
      <trkpt lat="45.8687" lon="2.98311">
        <ele>816</ele>
        <time>2022-07-13T11:10:04Z</time>
      </trkpt>
      <trkpt lat="45.86819" lon="2.98337">
        <ele>819</ele>
        <time>2022-07-13T11:11:16Z</time>
      </trkpt>
      <trkpt lat="45.86766" lon="2.98425">
        <ele>825</ele>
        <time>2022-07-13T11:13:04Z</time>
      </trkpt>
      <trkpt lat="45.86741" lon="2.98531">
        <ele>826</ele>
        <time>2022-07-13T11:14:48Z</time>
      </trkpt>
      <trkpt lat="45.86624" lon="2.98684">
        <ele>850</ele>
        <time>2022-07-13T11:18:19Z</time>
      </trkpt>
      <trkpt lat="45.86498" lon="2.98662">
        <ele>871</ele>
        <time>2022-07-13T11:21:08Z</time>
      </trkpt>
      <trkpt lat="45.8639" lon="2.98652">
        <ele>887</ele>
        <time>2022-07-13T11:23:33Z</time>
      </trkpt>
      <trkpt lat="45.86356" lon="2.98776">
        <ele>885</ele>
        <time>2022-07-13T11:25:37Z</time>
      </trkpt>
      <trkpt lat="45.86375" lon="2.98866">
        <ele>881</ele>
        <time>2022-07-13T11:27:04Z</time>
      </trkpt>
      <trkpt lat="45.86461" lon="2.98828">
        <ele>867</ele>
        <time>2022-07-13T11:29:04Z</time>
      </trkpt>
      <trkpt lat="45.8662" lon="2.98939">
        <ele>851</ele>
        <time>2022-07-13T11:33:00Z</time>
      </trkpt>
      <trkpt lat="45.86577" lon="2.99082">
        <ele>858</ele>
        <time>2022-07-13T11:35:25Z</time>
      </trkpt>
      <trkpt lat="45.86531" lon="2.99145">
        <ele>869</ele>
        <time>2022-07-13T11:36:50Z</time>
      </trkpt>
      <trkpt lat="45.86511" lon="2.99269">
        <ele>869</ele>
        <time>2022-07-13T11:38:48Z</time>
      </trkpt>
      <trkpt lat="45.86437" lon="2.99367">
        <ele>872</ele>
        <time>2022-07-13T11:41:02Z</time>
      </trkpt>
      <trkpt lat="45.86385" lon="2.99387">
        <ele>873</ele>
        <time>2022-07-13T11:42:14Z</time>
      </trkpt>
      <trkpt lat="45.86378" lon="2.99451">
        <ele>872</ele>
        <time>2022-07-13T11:43:14Z</time>
      </trkpt>
      <trkpt lat="45.86396" lon="2.99481">
        <ele>872</ele>
        <time>2022-07-13T11:43:51Z</time>
      </trkpt>
      <trkpt lat="45.86516" lon="2.99486">
        <ele>869</ele>
        <time>2022-07-13T11:46:31Z</time>
      </trkpt>
      <trkpt lat="45.86461" lon="2.99654">
        <ele>864</ele>
        <time>2022-07-13T11:49:24Z</time>
      </trkpt>
      <trkpt lat="45.8641" lon="2.9965">
        <ele>867</ele>
        <time>2022-07-13T11:50:32Z</time>
      </trkpt>
      <trkpt lat="45.86399" lon="2.99709">
        <ele>856</ele>
        <time>2022-07-13T11:51:29Z</time>
      </trkpt>
      <trkpt lat="45.86348" lon="2.99721">
        <ele>854</ele>
        <time>2022-07-13T11:52:38Z</time>
      </trkpt>
      <trkpt lat="45.86316" lon="2.99701">
        <ele>858</ele>
        <time>2022-07-13T11:53:24Z</time>
      </trkpt>
      <trkpt lat="45.86297" lon="2.9978">
        <ele>840</ele>
        <time>2022-07-13T11:54:42Z</time>
      </trkpt>
      <trkpt lat="45.86269" lon="2.99912">
        <ele>809</ele>
        <time>2022-07-13T11:56:50Z</time>
      </trkpt>
      <trkpt lat="45.8625" lon="3.00041">
        <ele>794</ele>
        <time>2022-07-13T11:58:53Z</time>
      </trkpt>
      <trkpt lat="45.86255" lon="3.00084">
        <ele>787</ele>
        <time>2022-07-13T11:59:33Z</time>
      </trkpt>
      <trkpt lat="45.86227" lon="3.00122">
        <ele>786</ele>
        <time>2022-07-13T12:00:25Z</time>
      </trkpt>
      <trkpt lat="45.86279" lon="3.00237">
        <ele>778</ele>
        <time>2022-07-13T12:02:32Z</time>
      </trkpt>
      <trkpt lat="45.86327" lon="3.00316">
        <ele>771</ele>
        <time>2022-07-13T12:04:09Z</time>
      </trkpt>
      <trkpt lat="45.86389" lon="3.00385">
        <ele>762</ele>
        <time>2022-07-13T12:05:54Z</time>
      </trkpt>
      <trkpt lat="45.86399" lon="3.00423">
        <ele>760</ele>
        <time>2022-07-13T12:06:32Z</time>
      </trkpt>
      <trkpt lat="45.86487" lon="3.00477">
        <ele>757</ele>
        <time>2022-07-13T12:08:40Z</time>
      </trkpt>
      <trkpt lat="45.86477" lon="3.00634">
        <ele>754</ele>
        <time>2022-07-13T12:11:06Z</time>
      </trkpt>
      <trkpt lat="45.86487" lon="3.00695">
        <ele>754</ele>
        <time>2022-07-13T12:12:04Z</time>
      </trkpt>
      <trkpt lat="45.86512" lon="3.00721">
        <ele>752</ele>
        <time>2022-07-13T12:12:45Z</time>
      </trkpt>
      <trkpt lat="45.86519" lon="3.00738">
        <ele>751</ele>
        <time>2022-07-13T12:13:04Z</time>
      </trkpt>
      <trkpt lat="45.86583" lon="3.00708">
        <ele>744</ele>
        <time>2022-07-13T12:14:34Z</time>
      </trkpt>
      <trkpt lat="45.86658" lon="3.00769">
        <ele>727</ele>
        <time>2022-07-13T12:16:29Z</time>
      </trkpt>
      <trkpt lat="45.86668" lon="3.00801">
        <ele>723</ele>
        <time>2022-07-13T12:17:01Z</time>
      </trkpt>
      <trkpt lat="45.86677" lon="3.00929">
        <ele>712</ele>
        <time>2022-07-13T12:19:01Z</time>
      </trkpt>
      <trkpt lat="45.86707" lon="3.01109">
        <ele>685</ele>
        <time>2022-07-13T12:21:53Z</time>
      </trkpt>
      <trkpt lat="45.86716" lon="3.0136">
        <ele>666</ele>
        <time>2022-07-13T12:25:46Z</time>
      </trkpt>
      <trkpt lat="45.86742" lon="3.01523">
        <ele>668</ele>
        <time>2022-07-13T12:28:22Z</time>
      </trkpt>
      <trkpt lat="45.86763" lon="3.01586">
        <ele>664</ele>
        <time>2022-07-13T12:29:27Z</time>
      </trkpt>
      <trkpt lat="45.86791" lon="3.01645">
        <ele>660</ele>
        <time>2022-07-13T12:30:33Z</time>
      </trkpt>
      <trkpt lat="45.8681" lon="3.01658">
        <ele>659</ele>
        <time>2022-07-13T12:31:01Z</time>
      </trkpt>
      <trkpt lat="45.86838" lon="3.01717">
        <ele>657</ele>
        <time>2022-07-13T12:32:07Z</time>
      </trkpt>
      <trkpt lat="45.86866" lon="3.01761">
        <ele>655</ele>
        <time>2022-07-13T12:33:03Z</time>
      </trkpt>
      <trkpt lat="45.8692" lon="3.01771">
        <ele>653</ele>
        <time>2022-07-13T12:34:15Z</time>
      </trkpt>
      <trkpt lat="45.87" lon="3.01705">
        <ele>651</ele>
        <time>2022-07-13T12:36:19Z</time>
      </trkpt>
      <trkpt lat="45.87044" lon="3.01695">
        <ele>650</ele>
        <time>2022-07-13T12:37:18Z</time>
      </trkpt>
      <trkpt lat="45.87128" lon="3.01704">
        <ele>648</ele>
        <time>2022-07-13T12:39:10Z</time>
      </trkpt>
      <trkpt lat="45.87108" lon="3.0183">
        <ele>639</ele>
        <time>2022-07-13T12:41:11Z</time>
      </trkpt>
      <trkpt lat="45.87115" lon="3.01918">
        <ele>634</ele>
        <time>2022-07-13T12:42:33Z</time>
      </trkpt>
      <trkpt lat="45.87202" lon="3.02021">
        <ele>624</ele>
        <time>2022-07-13T12:45:03Z</time>
      </trkpt>
      <trkpt lat="45.87227" lon="3.02264">
        <ele>619</ele>
        <time>2022-07-13T12:48:52Z</time>
      </trkpt>
      <trkpt lat="45.87166" lon="3.02403">
        <ele>613</ele>
        <time>2022-07-13T12:51:24Z</time>
      </trkpt>
      <trkpt lat="45.87108" lon="3.02769">
        <ele>579</ele>
        <time>2022-07-13T12:57:13Z</time>
      </trkpt>
    </trkseg>
  </trk>
</gpx>